Time;durP1;ratioP1;P1;durP2;ratioP2;P2;SDS_P1;SDS_P2;PMS_P1;PMS_P2;Temp;Humidity;BMP_temperature;BMP_pressure;BME280_temperature;BME280_humidity;BME280_pressure;Samples;Min_cycle;Max_cycle;Signal;HPM_P1;HPM_P2
2021/09/04 00:02:25;;;;;;;3.15;1.77;;;;;;;14.39;98.99;101727.34;6251125;28;20049;-74
2021/09/04 00:05:26;;;;;;;4.22;1.50;;;;;;;14.44;98.23;101719.16;6250969;28;20398;-74
2021/09/04 00:08:27;;;;;;;1.45;1.25;;;;;;;14.36;99.45;101721.38;6251639;28;20057;-74
2021/09/04 00:11:30;;;;;;;2.63;1.25;;;;;;;14.40;99.34;101725.59;6250879;28;20060;-73
2021/09/04 00:14:32;;;;;;;3.22;1.50;;;;;;;14.44;97.42;101725.34;6250767;28;20053;-74
2021/09/04 00:17:34;;;;;;;3.03;1.55;;;;;;;14.38;97.42;101720.34;6250754;28;20413;-74
2021/09/04 00:20:35;;;;;;;3.80;1.90;;;;;;;14.36;96.45;101716.94;6250632;28;20046;-74
2021/09/04 00:23:37;;;;;;;6.47;2.47;;;;;;;14.28;97.03;101721.78;6250384;28;20045;-75
2021/09/04 00:26:39;;;;;;;5.28;1.85;;;;;;;14.29;97.90;101720.84;6250603;28;20053;-74
2021/09/04 00:29:41;;;;;;;2.97;1.60;;;;;;;14.37;97.80;101723.94;6250662;28;20049;-74
2021/09/04 00:32:42;;;;;;;5.85;1.65;;;;;;;14.39;95.97;101729.13;6250519;28;20049;-74
2021/09/04 00:35:44;;;;;;;3.20;1.85;;;;;;;14.30;96.81;101719.91;6250108;28;20049;-75
2021/09/04 00:38:45;;;;;;;2.40;1.30;;;;;;;14.26;97.42;101718.38;6250273;28;20053;-75
2021/09/04 00:41:48;;;;;;;2.90;1.35;;;;;;;14.27;98.37;101720.09;6249975;28;20505;-75
2021/09/04 00:44:50;;;;;;;5.95;2.08;;;;;;;14.30;97.43;101724.34;6231187;28;20049;-74
2021/09/04 00:47:57;;;;;;;3.58;1.90;;;;;;;14.28;98.62;101720.94;6240887;28;20084;-74
2021/09/04 00:50:59;;;;;;;2.25;1.55;;;;;;;14.39;97.00;101721.22;6249967;28;20144;-74
2021/09/04 00:54:00;;;;;;;3.53;1.67;;;;;;;14.26;96.66;101722.78;6245836;28;20098;-74
2021/09/04 00:57:04;;;;;;;3.25;2.15;;;;;;;14.24;97.32;101727.31;6241990;28;20063;-74
2021/09/04 01:00:06;;;;;;;3.90;1.67;;;;;;;14.27;97.19;101721.88;6249951;28;20045;-74
2021/09/04 01:03:07;;;;;;;3.30;1.70;;;;;;;14.25;97.47;101721.94;6249669;28;20057;-74
2021/09/04 01:06:11;;;;;;;3.88;2.17;;;;;;;14.24;98.67;101720.25;6246815;28;20045;-74
2021/09/04 01:09:12;;;;;;;4.18;2.28;;;;;;;14.32;98.54;101714.56;6242948;28;20045;-74
2021/09/04 01:12:15;;;;;;;3.92;2.08;;;;;;;14.31;97.06;101713.72;6249667;28;20049;-74
2021/09/04 01:15:19;;;;;;;6.82;2.08;;;;;;;14.28;96.57;101711.22;6249319;28;20053;-74
2021/09/04 01:18:22;;;;;;;5.68;2.53;;;;;;;14.20;97.41;101714.25;6249250;28;20053;-74
2021/09/04 01:21:24;;;;;;;3.35;1.60;;;;;;;14.23;97.69;101725.63;6249363;28;20049;-74
2021/09/04 01:24:25;;;;;;;4.07;1.95;;;;;;;14.18;97.15;101725.88;6249066;28;20508;-74
2021/09/04 01:27:28;;;;;;;4.57;1.92;;;;;;;14.15;97.03;101711.00;6249331;28;20124;-74
2021/09/04 01:30:30;;;;;;;3.65;2.10;;;;;;;14.14;96.40;101719.03;6249115;28;20061;-74
2021/09/04 01:33:32;;;;;;;7.07;2.10;;;;;;;14.13;95.06;101707.59;6240188;28;20049;-74
2021/09/04 01:36:38;;;;;;;9.13;2.30;;;;;;;14.13;95.96;101714.69;6248892;28;20049;-74
2021/09/04 01:39:40;;;;;;;2.85;1.63;;;;;;;14.11;95.78;101714.75;6248898;28;20057;-74
2021/09/04 01:42:43;;;;;;;3.75;1.73;;;;;;;14.06;96.79;101706.22;6248664;28;20045;-74
2021/09/04 01:45:45;;;;;;;4.88;1.80;;;;;;;14.08;96.13;101698.19;6248672;28;20496;-74
2021/09/04 01:48:46;;;;;;;4.97;1.35;;;;;;;14.15;97.09;101703.06;6248874;28;20046;-74
2021/09/04 01:51:48;;;;;;;7.72;2.05;;;;;;;14.08;97.35;101699.06;6248585;28;20045;-74
2021/09/04 01:54:50;;;;;;;3.10;1.67;;;;;;;14.13;97.84;101698.81;6248429;28;20469;-74
2021/09/04 01:57:53;;;;;;;5.10;3.05;;;;;;;14.09;97.67;101697.28;6244011;28;20045;-75
2021/09/04 02:00:54;;;;;;;2.42;1.77;;;;;;;14.17;97.75;101695.06;6226571;28;20437;-74
2021/09/04 02:03:55;;;;;;;3.38;1.70;;;;;;;14.16;97.88;101693.34;6235212;28;20041;-74
2021/09/04 02:06:57;;;;;;;2.63;1.33;;;;;;;14.18;97.25;101697.63;6239783;28;20049;-74
2021/09/04 02:09:58;;;;;;;4.40;1.98;;;;;;;14.16;97.04;101699.50;6247950;28;20459;-74
2021/09/04 02:13:01;;;;;;;3.60;1.50;;;;;;;14.19;97.63;101693.19;6244725;28;20046;-74
2021/09/04 02:16:02;;;;;;;3.67;1.92;;;;;;;14.11;96.16;101698.03;6240124;28;20056;-74
2021/09/04 02:19:03;;;;;;;3.17;1.55;;;;;;;14.11;96.83;101701.53;6247971;28;20053;-74
2021/09/04 02:22:05;;;;;;;3.40;1.60;;;;;;;14.12;98.03;101699.72;6247781;28;20402;-74
2021/09/04 02:25:09;;;;;;;5.70;1.77;;;;;;;14.15;97.66;101699.59;6234724;28;20516;-74
2021/09/04 02:28:14;;;;;;;1.88;1.27;;;;;;;14.23;97.47;101701.81;6248159;28;20049;-74
2021/09/04 02:31:19;;;;;;;2.15;1.05;;;;;;;14.12;96.17;101703.22;6247533;28;20060;-74
2021/09/04 02:34:20;;;;;;;2.03;1.30;;;;;;;14.22;96.48;101700.97;6247493;28;20048;-74
2021/09/04 02:37:21;;;;;;;5.65;2.10;;;;;;;14.09;95.15;101702.56;6247340;28;20057;-74
2021/09/04 02:40:23;;;;;;;3.70;1.65;;;;;;;14.06;95.36;101694.78;6247531;28;20049;-75
2021/09/04 02:43:25;;;;;;;2.88;1.63;;;;;;;14.03;97.01;101697.56;6247084;28;20045;-74
2021/09/04 02:46:27;;;;;;;2.97;1.35;;;;;;;14.01;96.26;101695.03;6235039;28;20042;-75
2021/09/04 02:49:28;;;;;;;3.20;1.30;;;;;;;14.02;96.52;101695.88;6247288;28;20057;-74
2021/09/04 02:52:30;;;;;;;2.50;1.55;;;;;;;14.07;95.89;101699.97;6247229;28;20057;-74
2021/09/04 02:55:31;;;;;;;2.08;1.25;;;;;;;14.03;95.79;101698.44;6247151;28;20056;-74
2021/09/04 02:58:34;;;;;;;4.13;1.60;;;;;;;14.00;96.08;101701.25;6247299;28;20049;-74
2021/09/04 03:01:35;;;;;;;4.38;1.67;;;;;;;14.06;98.09;101705.34;6247097;28;20050;-73
2021/09/04 03:04:37;;;;;;;4.15;1.90;;;;;;;14.02;97.50;101702.00;6246911;28;20052;-73
2021/09/04 03:07:38;;;;;;;2.05;1.20;;;;;;;14.06;98.87;101708.00;6247166;28;20055;-75
2021/09/04 03:10:40;;;;;;;2.38;1.35;;;;;;;14.10;98.56;101709.53;6246801;28;20053;-75
2021/09/04 03:13:43;;;;;;;2.60;1.02;;;;;;;14.14;99.15;101704.03;6246799;28;20050;-76
2021/09/04 03:16:44;;;;;;;2.40;1.52;;;;;;;14.12;98.20;101702.38;6246829;28;20152;-75
2021/09/04 03:19:46;;;;;;;4.32;1.60;;;;;;;14.13;96.90;101706.75;6246838;28;20056;-75
2021/09/04 03:22:47;;;;;;;1.83;1.05;;;;;;;14.08;98.14;101704.34;6246674;28;20046;-75
2021/09/04 03:25:48;;;;;;;1.48;1.20;;;;;;;14.08;97.21;101703.47;6246475;28;20436;-75
2021/09/04 03:28:51;;;;;;;1.77;1.20;;;;;;;14.04;96.43;101694.03;6246950;28;20049;-75
2021/09/04 03:31:52;;;;;;;1.40;0.95;;;;;;;14.02;97.92;101694.09;6250438;28;20046;-75
2021/09/04 03:34:55;;;;;;;1.83;1.13;;;;;;;14.06;98.40;101695.63;6251693;28;20041;-73
2021/09/04 03:37:56;;;;;;;4.53;1.60;;;;;;;14.05;97.95;101688.66;6251727;28;20059;-75
2021/09/04 03:40:57;;;;;;;2.20;1.35;;;;;;;14.06;96.93;101690.34;6251658;28;20049;-76
2021/09/04 03:44:00;;;;;;;5.20;1.95;;;;;;;14.05;97.15;101696.56;6251047;28;20056;-75
2021/09/04 03:47:02;;;;;;;4.18;1.42;;;;;;;14.02;95.85;101702.00;6251543;28;20136;-75
2021/09/04 03:50:04;;;;;;;2.50;1.88;;;;;;;13.93;95.84;101700.69;6251246;28;20045;-75
2021/09/04 03:53:05;;;;;;;2.42;0.95;;;;;;;13.93;95.94;101702.50;6251421;28;20049;-75
2021/09/04 03:56:06;;;;;;;5.70;1.50;;;;;;;13.90;96.14;101700.03;6251296;28;20072;-76
2021/09/04 03:59:09;;;;;;;3.75;1.10;;;;;;;13.92;98.42;101696.34;6251300;28;20057;-75
2021/09/04 04:02:10;;;;;;;2.40;1.50;;;;;;;13.94;96.80;101702.44;6251039;28;20056;-76
2021/09/04 04:05:12;;;;;;;3.05;1.65;;;;;;;13.92;96.88;101706.06;6250639;28;20052;-75
2021/09/04 04:08:13;;;;;;;3.63;1.63;;;;;;;13.94;96.66;101702.44;6251028;28;20459;-76
2021/09/04 04:11:15;;;;;;;2.13;1.23;;;;;;;13.91;97.94;101699.94;6250850;28;20056;-76
2021/09/04 04:14:17;;;;;;;3.72;1.50;;;;;;;13.94;98.28;101699.78;6250666;28;20076;-76
2021/09/04 04:17:18;;;;;;;1.75;1.20;;;;;;;13.93;96.40;101694.56;6250912;28;20075;-76
2021/09/04 04:20:20;;;;;;;2.75;1.10;;;;;;;13.94;97.20;101697.16;6250820;28;20057;-76
2021/09/04 04:23:21;;;;;;;1.45;0.90;;;;;;;13.92;96.28;101695.50;6250604;28;20042;-76
2021/09/04 04:26:23;;;;;;;2.00;1.27;;;;;;;13.88;94.77;101693.94;6237139;28;20046;-76
2021/09/04 04:29:25;;;;;;;1.67;1.17;;;;;;;13.85;95.02;101691.47;6218235;28;20042;-76
2021/09/04 04:32:27;;;;;;;2.70;1.00;;;;;;;13.85;96.79;101692.34;6226352;28;20050;-76
2021/09/04 04:35:28;;;;;;;2.72;1.20;;;;;;;13.90;96.04;101694.75;6226078;28;20056;-76
2021/09/04 04:38:29;;;;;;;1.65;1.05;;;;;;;13.90;95.01;101690.31;6228082;28;20065;-76
2021/09/04 04:41:31;;;;;;;2.17;0.98;;;;;;;13.88;94.86;101689.53;6226890;28;20054;-76
2021/09/04 04:44:33;;;;;;;2.20;1.17;;;;;;;13.85;95.72;101694.09;6226429;28;20053;-76
2021/09/04 04:47:35;;;;;;;2.58;1.40;;;;;;;13.85;96.39;101686.19;6226822;28;20049;-76
2021/09/04 04:50:36;;;;;;;1.45;0.90;;;;;;;13.85;95.99;101696.75;6225822;28;20129;-76
2021/09/04 04:53:39;;;;;;;2.78;1.33;;;;;;;13.85;96.54;101696.75;6225649;28;20050;-76
2021/09/04 04:56:40;;;;;;;2.38;1.20;;;;;;;13.84;96.35;101693.25;6225670;28;20053;-76
2021/09/04 04:59:43;;;;;;;1.23;0.98;;;;;;;13.88;97.16;101697.44;6225525;28;20057;-76
2021/09/04 05:02:44;;;;;;;3.53;1.95;;;;;;;13.87;96.55;101690.47;6225214;28;20050;-76
2021/09/04 05:05:46;;;;;;;2.83;1.13;;;;;;;13.88;95.56;101700.09;6230635;28;20516;-76
2021/09/04 05:08:47;;;;;;;2.05;0.90;;;;;;;13.90;96.54;101703.53;6231328;28;20050;-76
2021/09/04 05:11:48;;;;;;;2.75;1.10;;;;;;;13.88;96.85;101708.00;6235737;28;20494;-76
2021/09/04 05:14:51;;;;;;;2.53;0.90;;;;;;;13.92;97.18;101716.66;6234640;28;20037;-76
2021/09/04 05:17:52;;;;;;;8.70;1.27;;;;;;;13.92;96.64;101709.56;6240473;28;20053;-76
2021/09/04 05:20:53;;;;;;;2.13;1.08;;;;;;;13.91;95.96;101707.88;6214723;28;20053;-76
2021/09/04 05:23:55;;;;;;;2.17;1.20;;;;;;;13.96;97.46;101703.19;6214699;28;20406;-76
2021/09/04 05:26:56;;;;;;;2.55;1.00;;;;;;;13.95;95.09;101711.22;6232244;28;20057;-76
2021/09/04 05:29:59;;;;;;;4.95;1.05;;;;;;;13.93;96.19;101711.28;6224554;28;20070;-76
2021/09/04 05:33:00;;;;;;;1.10;0.82;;;;;;;13.91;96.87;101707.88;6224571;28;20073;-75
2021/09/04 05:36:01;;;;;;;2.03;1.02;;;;;;;13.96;97.64;101708.47;6232567;28;20402;-75
2021/09/04 05:39:03;;;;;;;1.52;0.80;;;;;;;14.03;98.24;101716.06;6230312;28;20049;-75
2021/09/04 05:42:05;;;;;;;4.25;1.10;;;;;;;14.05;98.62;101716.88;6225356;28;20406;-75
2021/09/04 05:45:09;;;;;;;0.93;0.82;;;;;;;14.04;97.45;101710.72;6224137;28;20053;-75
2021/09/04 05:48:10;;;;;;;2.22;1.15;;;;;;;14.03;96.86;101703.72;6231726;28;20136;-75
2021/09/04 05:51:12;;;;;;;6.63;1.58;;;;;;;14.04;96.81;101710.72;6221076;23;20405;-82
2021/09/04 05:54:13;;;;;;;1.67;0.90;;;;;;;14.04;97.10;101708.09;6200329;28;20053;-82
2021/09/04 05:57:14;;;;;;;4.60;1.20;;;;;;;14.02;96.46;101714.38;6200803;28;20050;-82
2021/09/04 06:00:18;;;;;;;1.30;0.90;;;;;;;14.07;98.41;101709.69;6198258;28;20039;-82
2021/09/04 06:03:19;;;;;;;3.38;0.88;;;;;;;14.09;98.46;101713.13;6200751;28;20042;-82
2021/09/04 06:06:20;;;;;;;5.88;1.30;;;;;;;14.10;97.97;101714.84;6201286;28;20414;-82
2021/09/04 06:09:22;;;;;;;4.30;1.75;;;;;;;14.15;97.98;101710.16;6202425;28;20038;-81
2021/09/04 06:12:25;;;;;;;1.17;0.88;;;;;;;14.19;96.28;101712.56;6202046;28;20053;-82
2021/09/04 06:15:27;;;;;;;1.08;0.98;;;;;;;14.13;96.92;101725.25;6202524;28;20410;-81
2021/09/04 06:18:29;;;;;;;1.85;0.95;;;;;;;14.10;96.67;101718.31;6201815;28;20050;-82
2021/09/04 06:21:30;;;;;;;3.53;0.93;;;;;;;14.14;96.99;101722.53;6201926;28;20050;-82
2021/09/04 06:24:31;;;;;;;1.10;0.80;;;;;;;14.20;97.20;101727.47;6201252;28;20429;-82
2021/09/04 06:27:33;;;;;;;2.40;1.35;;;;;;;14.21;96.12;101725.69;6202298;28;20057;-82
2021/09/04 06:30:35;;;;;;;2.83;1.08;;;;;;;14.24;96.52;101733.47;6200368;28;20120;-82
2021/09/04 06:33:37;;;;;;;1.40;1.00;;;;;;;14.27;96.27;101735.94;6201591;28;20054;-82
2021/09/04 06:36:38;;;;;;;1.27;0.90;;;;;;;14.31;96.45;101734.00;6201584;28;20426;-82
2021/09/04 06:39:39;;;;;;;0.82;0.60;;;;;;;14.31;95.39;101736.66;6201187;28;20050;-81
2021/09/04 06:42:41;;;;;;;1.70;1.20;;;;;;;14.26;94.78;101738.66;6201173;28;20050;-81
2021/09/04 06:45:43;;;;;;;1.35;0.98;;;;;;;14.25;95.60;101736.97;6201121;28;20053;-81
2021/09/04 06:48:45;;;;;;;2.05;1.10;;;;;;;14.23;94.54;101731.75;6201621;28;20046;-81
2021/09/04 06:51:46;;;;;;;2.40;0.90;;;;;;;14.27;95.33;101722.72;6200619;28;20050;-82
2021/09/04 06:54:48;;;;;;;1.65;0.93;;;;;;;14.29;95.86;101723.50;6200845;28;20054;-82
2021/09/04 06:57:49;;;;;;;2.35;1.15;;;;;;;14.31;95.60;101715.50;6200311;28;20438;-81
2021/09/04 07:00:51;;;;;;;1.63;0.65;;;;;;;14.33;94.75;101719.75;6200773;28;20057;-82
2021/09/04 07:03:53;;;;;;;1.80;1.20;;;;;;;14.32;94.60;101730.41;6199383;28;20069;-82
2021/09/04 07:06:54;;;;;;;2.90;0.93;;;;;;;14.38;94.16;101730.94;6198879;28;20062;-82
2021/09/04 07:09:56;;;;;;;1.20;0.80;;;;;;;14.40;94.98;101733.53;6189025;28;20042;-82
2021/09/04 07:12:57;;;;;;;6.47;1.30;;;;;;;14.45;95.61;101727.03;6200406;28;20062;-82
2021/09/04 07:16:00;;;;;;;2.17;1.05;;;;;;;14.52;95.87;101732.03;6198182;28;20050;-81
2021/09/04 07:19:01;;;;;;;2.53;1.40;;;;;;;14.53;94.77;101737.22;6200121;28;20053;-82
2021/09/04 07:22:03;;;;;;;2.38;1.15;;;;;;;14.59;93.19;101738.69;6186985;28;20054;-84
2021/09/04 07:25:05;;;;;;;1.00;0.88;;;;;;;14.55;91.92;101734.50;6186717;28;20046;-81
2021/09/04 07:28:07;;;;;;;2.10;0.98;;;;;;;14.56;91.12;101734.41;6198185;28;20052;-82
2021/09/04 07:31:09;;;;;;;2.25;0.98;;;;;;;14.65;92.26;101739.19;6191927;28;20177;-81
2021/09/04 07:34:11;;;;;;;5.30;1.15;;;;;;;14.71;93.04;101743.31;6193906;28;20046;-82
2021/09/04 07:37:12;;;;;;;2.78;1.23;;;;;;;14.73;92.70;101743.25;6200282;28;20058;-82
2021/09/04 07:40:14;;;;;;;3.92;1.92;;;;;;;14.80;92.67;101745.44;6200299;28;20054;-82
2021/09/04 07:43:15;;;;;;;4.22;1.02;;;;;;;14.86;93.43;101745.13;6199719;28;20425;-81
2021/09/04 07:46:18;;;;;;;2.38;1.08;;;;;;;14.90;92.86;101741.38;6198864;28;20039;-82
2021/09/04 07:49:19;;;;;;;1.40;1.05;;;;;;;14.90;92.26;101749.31;6198336;28;20065;-81
2021/09/04 07:52:21;;;;;;;1.15;0.90;;;;;;;14.90;92.22;101757.25;6200401;28;20330;-81
2021/09/04 07:55:22;;;;;;;3.75;1.77;;;;;;;14.89;92.22;101758.16;6200642;28;20533;-80
2021/09/04 07:58:23;;;;;;;1.77;1.00;;;;;;;14.89;90.90;101759.97;6200456;28;20417;-80
2021/09/04 08:01:26;;;;;;;1.83;1.10;;;;;;;14.92;91.19;101765.09;6200511;28;20051;-80
2021/09/04 08:04:27;;;;;;;2.20;1.30;;;;;;;14.89;90.65;101762.59;6200834;28;20051;-80
2021/09/04 08:07:29;;;;;;;2.60;1.25;;;;;;;14.91;90.93;101766.03;6200790;28;20418;-80
2021/09/04 08:10:30;;;;;;;1.95;0.95;;;;;;;14.93;90.73;101766.81;6199737;28;20054;-80
2021/09/04 08:13:32;;;;;;;1.58;1.02;;;;;;;14.92;89.10;101759.81;6200094;28;20051;-81
2021/09/04 08:16:34;;;;;;;2.33;0.93;;;;;;;14.91;87.94;101763.41;6202646;28;20490;-81
2021/09/04 08:19:36;;;;;;;1.85;1.00;;;;;;;15.00;88.97;101757.59;6205321;28;20053;-79
2021/09/04 08:22:37;;;;;;;1.52;0.80;;;;;;;15.02;88.19;101749.56;6204878;28;20057;-81
2021/09/04 08:25:39;;;;;;;9.25;1.63;;;;;;;15.13;86.40;101757.75;6204352;28;20054;-81
2021/09/04 08:28:40;;;;;;;4.43;1.70;;;;;;;15.13;85.78;101748.03;6204448;28;20050;-80
2021/09/04 08:31:43;;;;;;;1.95;1.00;;;;;;;15.18;84.35;101747.75;6193819;28;20051;-81
2021/09/04 08:34:44;;;;;;;2.80;1.00;;;;;;;15.23;85.25;101757.16;6202165;28;20042;-80
2021/09/04 08:37:46;;;;;;;1.42;0.90;;;;;;;15.37;85.05;101752.88;6200698;28;20049;-80
2021/09/04 08:40:50;;;;;;;0.90;0.80;;;;;;;15.41;84.96;101757.91;6199990;28;20050;-81
2021/09/04 08:43:51;;;;;;;1.13;0.90;;;;;;;15.47;85.00;101762.84;6198855;28;20050;-81
2021/09/04 08:46:54;;;;;;;3.55;1.15;;;;;;;15.60;86.38;101756.84;6203588;28;20054;-80
2021/09/04 08:49:55;;;;;;;2.00;0.90;;;;;;;15.67;85.22;101755.56;6203113;28;20057;-80
2021/09/04 08:52:57;;;;;;;1.63;0.85;;;;;;;15.68;81.93;101767.88;6203515;28;20054;-80
2021/09/04 08:55:58;;;;;;;2.15;0.82;;;;;;;15.70;83.33;101769.47;6203057;28;20050;-81
2021/09/04 08:59:00;;;;;;;2.35;1.00;;;;;;;15.75;79.06;101768.34;6202880;28;20414;-81
2021/09/04 09:02:10;;;;;;;1.27;0.80;;;;;;;15.85;79.77;101764.22;6202140;28;20051;-83
2021/09/04 09:05:12;;;;;;;1.05;0.77;;;;;;;15.69;79.73;101761.63;6198531;28;20043;-78
2021/09/04 09:08:16;;;;;;;2.70;1.23;;;;;;;15.59;79.58;101758.63;6202015;28;20050;-79
2021/09/04 09:11:18;;;;;;;2.17;1.05;;;;;;;15.63;79.89;101756.66;6202088;28;20061;-79
2021/09/04 09:14:20;;;;;;;1.25;0.80;;;;;;;15.63;78.72;101760.16;6202364;28;20054;-79
2021/09/04 09:17:25;;;;;;;1.95;1.05;;;;;;;15.70;80.91;101768.63;6202547;28;20178;-79
2021/09/04 09:20:27;;;;;;;2.70;1.00;;;;;;;15.68;79.51;101766.06;6200985;28;20048;-78
2021/09/04 09:23:29;;;;;;;2.05;0.80;;;;;;;15.63;79.67;101768.13;6197926;28;20047;-79
2021/09/04 09:26:31;;;;;;;2.95;1.20;;;;;;;15.66;80.39;101762.66;6201303;28;20042;-78
2021/09/04 09:29:34;;;;;;;1.70;0.90;;;;;;;15.57;79.18;101757.84;6190393;28;20502;-78
2021/09/04 09:32:37;;;;;;;1.52;0.80;;;;;;;15.52;79.94;101765.22;6191480;28;20058;-78
2021/09/04 09:35:41;;;;;;;2.30;0.98;;;;;;;15.61;80.46;101758.53;6201040;28;20050;-78
2021/09/04 09:38:43;;;;;;;3.63;1.30;;;;;;;15.55;81.09;101751.78;6201693;28;20057;-78
2021/09/04 09:41:48;;;;;;;2.00;1.15;;;;;;;15.62;81.67;101752.28;6201798;28;20051;-79
2021/09/04 09:44:50;;;;;;;1.95;1.13;;;;;;;15.81;79.84;101755.63;6200055;28;20047;-82
2021/09/04 09:47:52;;;;;;;3.15;1.27;;;;;;;16.06;77.90;101762.94;6199638;28;20053;-79
2021/09/04 09:50:56;;;;;;;5.28;1.42;;;;;;;16.24;79.12;101760.97;6201069;28;20057;-79
2021/09/04 09:53:57;;;;;;;2.72;1.10;;;;;;;16.37;77.18;101759.28;6200610;28;20050;-79
2021/09/04 09:57:00;;;;;;;3.88;0.80;;;;;;;16.41;74.77;101760.81;6198591;28;20054;-81
2021/09/04 10:00:02;;;;;;;2.22;1.15;;;;;;;16.26;77.14;101766.19;6201575;28;20054;-82
2021/09/04 10:03:07;;;;;;;7.00;1.58;;;;;;;16.31;77.55;101764.97;6201806;28;20058;-81
2021/09/04 10:06:09;;;;;;;1.27;0.93;;;;;;;16.23;76.97;101761.94;6200499;28;20049;-82
2021/09/04 10:13:07;;;;;;;2.15;1.10;;;;;;;16.41;77.63;101752.84;6197664;28;20038;-80
2021/09/04 10:16:09;;;;;;;5.15;1.40;;;;;;;16.50;74.73;101743.47;6200456;28;20078;-80
2021/09/04 10:19:16;;;;;;;4.40;1.42;;;;;;;16.58;75.09;101735.88;6199681;28;20050;-80
2021/09/04 10:22:17;;;;;;;3.75;1.00;;;;;;;16.60;76.96;101744.59;6198600;28;20065;-80
2021/09/04 10:25:20;;;;;;;1.55;1.13;;;;;;;16.61;76.47;101738.31;6199789;28;20412;-80
2021/09/04 10:28:21;;;;;;;1.58;1.20;;;;;;;16.66;75.21;101736.22;6199959;28;20050;-80
2021/09/04 10:31:48;;;;;;;1.83;1.05;;;;;;;16.64;76.98;101739.94;6199004;28;20049;-79
2021/09/04 10:35:04;;;;;;;4.70;1.48;;;;;;;16.77;75.95;101730.28;6197356;28;20065;-80
2021/09/04 10:38:10;;;;;;;1.92;1.20;;;;;;;16.92;74.28;101734.59;6199596;28;20062;-80
2021/09/04 10:41:21;;;;;;;2.13;1.13;;;;;;;17.05;74.24;101729.38;6199543;28;20493;-79
2021/09/04 10:44:24;;;;;;;4.72;1.25;;;;;;;17.13;73.26;101723.56;6197597;28;20616;-77
2021/09/04 10:47:25;;;;;;;3.17;1.70;;;;;;;17.43;70.94;101728.66;6199502;28;20134;-79
2021/09/04 10:50:33;;;;;;;2.97;1.48;;;;;;;17.46;70.56;101726.63;6199420;28;20050;-78
2021/09/04 10:53:44;;;;;;;2.90;1.92;;;;;;;17.63;71.51;101720.19;6199172;28;20058;-79
2021/09/04 10:56:45;;;;;;;2.92;1.58;;;;;;;17.74;69.47;101723.00;6198470;28;20049;-77
2021/09/04 11:00:01;;;;;;;4.80;1.80;;;;;;;17.60;69.11;101723.06;6196452;28;20046;-76
2021/09/04 11:03:04;;;;;;;2.95;1.48;;;;;;;17.63;71.34;101719.34;6174513;28;20061;-77
2021/09/04 11:06:08;;;;;;;2.40;1.20;;;;;;;17.80;71.96;101723.53;6184123;28;20047;-77
2021/09/04 11:09:12;;;;;;;6.45;2.13;;;;;;;17.79;71.53;101722.69;6198312;28;20062;-77
2021/09/04 11:12:15;;;;;;;3.22;1.58;;;;;;;17.72;71.73;101721.38;6198764;28;20050;-77
2021/09/04 11:15:24;;;;;;;2.17;1.15;;;;;;;17.80;72.11;101715.56;6198634;28;20177;-77
2021/09/04 11:18:45;;;;;;;4.20;1.38;;;;;;;18.28;72.63;101705.16;6199250;28;20136;-77
2021/09/04 11:21:52;;;;;;;3.78;1.58;;;;;;;18.55;68.87;101705.00;6198593;28;20050;-78
2021/09/04 11:24:55;;;;;;;4.22;1.95;;;;;;;18.86;68.69;101703.69;6199094;28;20062;-78
2021/09/04 11:27:57;;;;;;;3.42;1.65;;;;;;;19.15;65.54;101697.03;6199549;28;20057;-78
2021/09/04 11:30:58;;;;;;;5.72;1.90;;;;;;;19.43;65.31;101694.97;6199546;28;20057;-78
2021/09/04 11:34:00;;;;;;;1.90;1.50;;;;;;;19.67;63.79;101693.16;6200426;28;20524;-76
2021/09/04 11:37:15;;;;;;;2.55;1.33;;;;;;;19.26;67.42;101699.75;6198316;28;20387;-78
2021/09/04 11:40:19;;;;;;;4.30;1.55;;;;;;;18.86;64.34;101701.84;6197894;28;20142;-76
2021/09/04 11:43:25;;;;;;;3.53;1.90;;;;;;;18.43;66.68;101704.06;6197867;28;20177;-77
2021/09/04 11:46:26;;;;;;;3.80;2.05;;;;;;;18.80;68.54;101699.63;6197839;28;20073;-77
2021/09/04 11:49:43;;;;;;;4.00;1.58;;;;;;;19.59;67.57;101700.00;6198043;28;20058;-77
2021/09/04 11:52:46;;;;;;;2.88;1.63;;;;;;;20.09;61.54;101706.78;6240552;23;20413;-78
2021/09/04 11:55:47;;;;;;;4.95;2.22;;;;;;;20.17;63.71;101701.72;6226674;28;20045;-78
2021/09/04 11:58:49;;;;;;;2.80;1.90;;;;;;;20.26;61.49;101698.31;6227548;28;20073;-78
2021/09/04 12:01:50;;;;;;;4.78;1.98;;;;;;;19.67;63.99;101697.63;6205132;28;20605;-78
2021/09/04 12:04:52;;;;;;;3.53;1.98;;;;;;;19.30;64.90;101702.19;6202556;28;20046;-78
2021/09/04 12:07:56;;;;;;;5.00;2.63;;;;;;;19.04;62.63;101697.00;6202632;28;20035;-75
2021/09/04 12:11:01;;;;;;;3.20;1.80;;;;;;;18.75;68.42;101697.28;6202283;28;20054;-78
2021/09/04 12:14:04;;;;;;;3.22;1.70;;;;;;;19.37;66.22;101692.78;6202205;28;20128;-77
2021/09/04 12:17:06;;;;;;;3.67;2.17;;;;;;;19.84;62.53;101693.66;6202461;28;20057;-76
2021/09/04 12:20:12;;;;;;;3.70;2.10;;;;;;;20.05;61.93;101688.47;6202280;28;20189;-77
2021/09/04 12:23:18;;;;;;;3.70;2.28;;;;;;;20.16;60.75;101693.81;6201828;28;20144;-77
2021/09/04 12:26:20;;;;;;;6.10;2.75;;;;;;;20.48;59.61;101691.28;6201646;28;20447;-77
2021/09/04 12:29:28;;;;;;;3.63;2.10;;;;;;;20.58;60.78;101686.91;6201846;28;20096;-77
2021/09/04 12:32:33;;;;;;;3.97;2.00;;;;;;;20.83;62.43;101682.25;6201783;28;20573;-78
2021/09/04 12:35:52;;;;;;;4.15;1.77;;;;;;;20.53;58.89;101691.78;6201574;28;20409;-77
2021/09/04 12:38:56;;;;;;;4.93;2.42;;;;;;;20.20;60.09;101687.25;6201627;28;20052;-77
2021/09/04 12:42:02;;;;;;;3.20;1.98;;;;;;;20.23;63.63;101685.19;6201508;28;20470;-79
2021/09/04 12:45:13;;;;;;;3.45;2.17;;;;;;;20.55;59.30;101687.16;6201454;28;20050;-77
2021/09/04 12:48:28;;;;;;;4.68;2.25;;;;;;;20.58;61.89;101680.72;6201767;28;20042;-76
2021/09/04 12:51:35;;;;;;;5.13;2.55;;;;;;;20.87;59.19;101673.00;6201575;28;20050;-77
2021/09/04 12:54:41;;;;;;;4.07;2.50;;;;;;;20.94;59.22;101677.72;6201431;28;20050;-77
2021/09/04 12:57:42;;;;;;;3.80;2.33;;;;;;;20.87;59.06;101665.00;6201421;28;20157;-77
2021/09/04 13:00:44;;;;;;;6.97;2.97;;;;;;;20.60;58.09;101679.63;6201304;28;20050;-77
2021/09/04 13:03:46;;;;;;;4.78;2.38;;;;;;;20.07;58.74;101671.34;6199623;28;20050;-77
2021/09/04 13:06:47;;;;;;;5.45;1.98;;;;;;;19.62;62.17;101671.31;6201516;28;20057;-77
2021/09/04 13:09:50;;;;;;;6.13;2.67;;;;;;;19.39;63.58;101665.00;6201210;28;20050;-78
2021/09/04 13:12:52;;;;;;;6.28;1.95;;;;;;;20.10;60.87;101668.47;6200920;28;20050;-77
2021/09/04 13:15:53;;;;;;;5.53;1.88;;;;;;;20.35;59.39;101667.38;6201224;28;20058;-78
2021/09/04 13:18:55;;;;;;;3.10;1.80;;;;;;;20.88;57.17;101650.66;6201795;28;20058;-78
2021/09/04 13:21:56;;;;;;;3.35;2.17;;;;;;;21.14;55.79;101654.69;6201382;28;20052;-75
2021/09/04 13:24:59;;;;;;;3.72;2.38;;;;;;;20.73;56.88;101658.09;6201320;28;20426;-78
2021/09/04 13:28:01;;;;;;;3.60;2.13;;;;;;;20.46;58.73;101667.34;6201603;28;20047;-78
2021/09/04 13:31:02;;;;;;;5.30;2.50;;;;;;;20.70;58.56;101666.38;6200973;28;20050;-77
2021/09/04 13:34:04;;;;;;;3.42;2.20;;;;;;;20.91;55.33;101647.72;6201073;28;20057;-77
2021/09/04 13:37:05;;;;;;;4.28;2.30;;;;;;;21.21;55.64;101649.66;6200920;28;20054;-75
2021/09/04 13:40:08;;;;;;;5.15;2.00;;;;;;;21.37;53.93;101651.94;6201314;28;20056;-77
2021/09/04 13:43:10;;;;;;;6.68;2.53;;;;;;;21.14;54.74;101643.16;6200755;28;20046;-77
2021/09/04 13:46:11;;;;;;;5.72;2.20;;;;;;;21.10;56.28;101652.41;6200174;28;20052;-75
2021/09/04 13:49:13;;;;;;;6.28;2.10;;;;;;;21.39;55.82;101647.28;6199712;28;20053;-75
2021/09/04 13:52:14;;;;;;;3.63;2.33;;;;;;;21.42;54.58;101645.22;6199465;28;20053;-75
2021/09/04 13:55:17;;;;;;;5.65;2.47;;;;;;;21.47;53.23;101648.34;6200646;28;20054;-78
2021/09/04 13:58:18;;;;;;;3.58;2.10;;;;;;;21.46;55.11;101635.94;6201751;28;20131;-78
2021/09/04 14:01:20;;;;;;;3.22;1.67;;;;;;;21.72;54.21;101639.06;6202257;28;20057;-76
2021/09/04 14:04:21;;;;;;;6.45;2.40;;;;;;;21.88;53.49;101641.25;6224834;28;20054;-77
2021/09/04 14:07:23;;;;;;;4.80;1.80;;;;;;;21.73;53.71;101640.75;6225417;28;20053;-76
2021/09/04 14:10:26;;;;;;;13.60;5.20;;;;;;;21.88;54.22;101638.56;6225381;28;20064;-76
2021/09/04 14:13:28;;;;;;;4.38;2.20;;;;;;;21.90;54.18;101643.81;6224931;28;20050;-76